To NAV CANADA Home Page Login to a new session Search on AWWS site Feedback and Comments Disclaimer Vers la page française équivalente Tips FAQ What's new on the site To the Forecasts and Observations / NOTAM section To "File a Flight Plan" website Publications and other links Update of the User's profile FIC Telephone Numbers My Weather Data Folder Route Weather Data Regional Weather Data Local Weather Data To the Forecasts and Observations / NOTAM section
Request Generated 04/02/2015 at 00:06:37 UTC . Weather information available at that time is displayed.

METAR/TAF

DAWSON CITY/YT    

LWIS CYDA 020000Z AUTO 08006KT 05/M00 A2987=
METAR CYDA 012300Z CCA 07004KT 15SM FEW020 BKN040 BKN080 04/M00 A2987
RMK CU1SC5AC1 CLIMAT 4.1/-3.4/TR MM/1.0 CM/0.4 MWE LAST STFD
OBS/NEXT 02 1400 UTC SLP138=
METAR CYDA 012300Z 07004KT 15SM FEW020 BKN040 BKN080 04/M00 A2987 RMK
CU1SC5AC1 SLP138=
METAR CYDA 012200Z 10004KT 15SM FEW030 BKN080 BKN220 02/M00 A2987 RMK
SC1AC4CI2 SLP138=

*** REMARK        : Forecast period has ended; this was the last TAF issued
*** REMARQUE : La période de prévision est échue; ceci était le dernier TAF qui a été émis
TAF CYDA 011738Z 0118/0123 VRB03KT 3SM -SN FEW005 OVC020 TEMPO
0118/0121 P6SM -SN OVC030 PROB30 0118/0121 2SM -SN
FM012100 VRB03KT P6SM SCT020 BKN040 BKN100 TEMPO 0121/0123 5SM
-RASN BR BKN020 OVC040
RMK NXT FCST WILL BE ISSUED AT 021545Z=
Your time UTC time
Weather data provided by Environment Canada and NAV CANADA